Time;durP1;ratioP1;P1;durP2;ratioP2;P2;SDS_P1;SDS_P2;PMS_P1;PMS_P2;Temp;Humidity;BMP_temperature;BMP_pressure;BME280_temperature;BME280_humidity;BME280_pressure;Samples;Min_cycle;Max_cycle;Signal;HPM_P1;HPM_P2
2022/05/20 00:01:38;;;;;;;4.90;3.35;;;;;;;;;;4938138;29;20070;-71
2022/05/20 00:04:23;;;;;;;8.40;4.10;;;;;;;;;;4937687;29;20043;-71
2022/05/20 00:07:15;;;;;;;6.32;3.65;;;;;;;;;;4936335;29;20047;-71
2022/05/20 00:09:47;;;;;;;5.97;3.55;;;;;;;;;;4937800;29;20087;-71
2022/05/20 00:12:18;;;;;;;4.72;3.38;;;;;;;;;;4937948;29;20123;-71
2022/05/20 00:15:11;;;;;;;6.32;4.05;;;;;;;;;;4936896;29;20039;-71
2022/05/20 00:17:39;;;;;;;9.10;3.65;;;;;;;;;;4937944;29;20051;-71
2022/05/20 00:20:14;;;;;;;5.57;3.25;;;;;;;;;;4937645;29;20044;-71
2022/05/20 00:22:42;;;;;;;5.18;3.22;;;;;;;;;;4937476;29;20051;-71
2022/05/20 00:28:01;;;;;;;5.53;3.40;;;;;;;;;;4937447;29;20426;-71
2022/05/20 00:30:39;;;;;;;5.85;3.42;;;;;;;;;;4937638;29;20055;-71
2022/05/20 00:33:09;;;;;;;7.05;3.58;;;;;;;;;;4937119;29;20052;-71
2022/05/20 00:35:39;;;;;;;4.38;3.40;;;;;;;;;;4937543;29;20047;-71
2022/05/20 00:38:11;;;;;;;6.55;3.60;;;;;;;;;;4937405;29;20044;-71
2022/05/20 00:40:43;;;;;;;5.35;3.53;;;;;;;;;;4937084;29;20059;-71
2022/05/20 00:43:15;;;;;;;6.82;3.90;;;;;;;;;;4937083;29;20503;-71
2022/05/20 00:45:45;;;;;;;5.55;3.70;;;;;;;;;;4936924;29;20487;-71
2022/05/20 00:48:15;;;;;;;7.28;3.53;;;;;;;;;;4937117;29;20051;-71
2022/05/20 00:51:02;;;;;;;5.00;3.45;;;;;;;;;;4937607;29;20459;-71
2022/05/20 00:53:34;;;;;;;5.18;3.75;;;;;;;;;;4937520;29;20118;-71
2022/05/20 00:56:09;;;;;;;5.40;3.90;;;;;;;;;;4936705;29;20455;-71
2022/05/20 00:58:41;;;;;;;4.90;3.72;;;;;;;;;;4937670;29;20503;-72
2022/05/20 01:01:20;;;;;;;5.57;3.70;;;;;;;;;;4937047;29;20165;-71
2022/05/20 01:06:53;;;;;;;5.30;3.30;;;;;;;;;;4936141;29;20042;-70
2022/05/20 01:09:39;;;;;;;5.75;3.60;;;;;;;;;;4936233;29;20055;-70
2022/05/20 01:12:09;;;;;;;4.30;3.45;;;;;;;;;;4935587;29;20116;-70
2022/05/20 01:14:37;;;;;;;6.60;3.55;;;;;;;;;;4935829;29;20040;-70
2022/05/20 01:17:30;;;;;;;8.88;3.67;;;;;;;;;;4919795;29;20058;-70
2022/05/20 01:20:08;;;;;;;5.07;3.60;;;;;;;;;;4936705;29;20094;-70
2022/05/20 01:22:55;;;;;;;5.30;3.65;;;;;;;;;;4936491;29;20078;-70
2022/05/20 01:25:28;;;;;;;5.05;3.75;;;;;;;;;;4936653;29;20451;-70
2022/05/20 01:27:56;;;;;;;6.78;4.03;;;;;;;;;;4935970;29;20122;-70
2022/05/20 01:30:31;;;;;;;6.45;4.07;;;;;;;;;;4936439;29;20074;-70
2022/05/20 01:33:04;;;;;;;6.30;3.90;;;;;;;;;;4936546;29;20422;-70
2022/05/20 01:35:42;;;;;;;8.65;4.10;;;;;;;;;;4935041;29;20078;-70
2022/05/20 01:38:11;;;;;;;8.55;4.43;;;;;;;;;;4936259;29;20134;-70
2022/05/20 01:41:04;;;;;;;10.32;4.72;;;;;;;;;;4936488;29;20067;-70
2022/05/20 01:43:36;;;;;;;9.27;4.95;;;;;;;;;;4936498;29;20150;-70
2022/05/20 01:46:07;;;;;;;9.02;4.85;;;;;;;;;;4935964;29;20040;-70
2022/05/20 01:49:00;;;;;;;10.30;5.60;;;;;;;;;;4936355;29;20052;-70
2022/05/20 01:51:32;;;;;;;11.38;5.43;;;;;;;;;;4936426;29;20044;-70
2022/05/20 01:54:04;;;;;;;12.55;5.75;;;;;;;;;;4935956;29;20071;-70
2022/05/20 01:56:57;;;;;;;10.10;6.03;;;;;;;;;;4936405;29;20048;-70
2022/05/20 01:59:35;;;;;;;11.68;5.25;;;;;;;;;;4934863;29;20084;-70
2022/05/20 02:02:24;;;;;;;11.90;5.88;;;;;;;;;;4936021;29;20087;-70
2022/05/20 02:04:57;;;;;;;10.82;5.65;;;;;;;;;;4935835;29;20039;-70
2022/05/20 02:07:27;;;;;;;9.00;4.82;;;;;;;;;;4935892;29;20047;-70
2022/05/20 02:10:04;;;;;;;9.55;4.80;;;;;;;;;;4935929;29;20040;-70
2022/05/20 02:12:42;;;;;;;8.00;4.53;;;;;;;;;;4935903;29;20071;-70
2022/05/20 02:15:21;;;;;;;9.65;5.18;;;;;;;;;;4935707;29;20095;-70
2022/05/20 02:17:52;;;;;;;9.55;5.22;;;;;;;;;;4936177;29;20044;-70
2022/05/20 02:20:32;;;;;;;9.20;5.03;;;;;;;;;;4935984;29;20047;-70
2022/05/20 02:23:09;;;;;;;7.65;5.47;;;;;;;;;;4937527;29;20127;-70
2022/05/20 02:25:44;;;;;;;7.80;4.57;;;;;;;;;;4939468;29;20048;-70
2022/05/20 02:28:16;;;;;;;7.80;4.55;;;;;;;;;;4939410;29;20051;-70
2022/05/20 02:30:52;;;;;;;6.07;4.30;;;;;;;;;;4939561;29;20098;-70
2022/05/20 02:33:45;;;;;;;8.05;4.78;;;;;;;;;;4939527;29;20038;-70
2022/05/20 02:39:15;;;;;;;7.35;4.72;;;;;;;;;;4939694;29;20059;-70
2022/05/20 02:45:00;;;;;;;7.30;5.00;;;;;;;;;;4939323;29;20415;-70
2022/05/20 02:50:47;;;;;;;6.72;4.97;;;;;;;;;;4939272;29;20054;-70
2022/05/20 02:53:19;;;;;;;12.10;5.18;;;;;;;;;;4939374;29;20048;-69
2022/05/20 02:55:47;;;;;;;8.50;5.30;;;;;;;;;;4938852;29;20104;-69
2022/05/20 03:04:15;;;;;;;;;;;;;;;;;;4939553;29;20123;-69
2022/05/20 03:06:49;;;;;;;7.10;4.40;;;;;;;;;;4937716;29;19923;-69
2022/05/20 03:09:23;;;;;;;6.57;4.38;;;;;;;;;;4939178;29;20144;-70
2022/05/20 03:12:17;;;;;;;7.57;4.82;;;;;;;;;;4939083;29;20043;-69
2022/05/20 03:14:52;;;;;;;5.72;4.22;;;;;;;;;;4938949;29;20055;-70
2022/05/20 03:17:22;;;;;;;10.88;5.45;;;;;;;;;;4938556;29;20058;-70
2022/05/20 03:19:53;;;;;;;6.35;5.07;;;;;;;;;;4939078;29;20513;-70
2022/05/20 03:22:21;;;;;;;7.38;5.20;;;;;;;;;;4938824;29;20122;-70
2022/05/20 03:24:50;;;;;;;6.65;5.10;;;;;;;;;;4938615;29;20044;-70
2022/05/20 03:27:18;;;;;;;7.18;5.00;;;;;;;;;;4938261;29;20047;-71
2022/05/20 03:29:46;;;;;;;8.00;5.45;;;;;;;;;;4938392;29;20040;-70
2022/05/20 03:32:19;;;;;;;9.50;6.85;;;;;;;;;;4938950;29;20047;-71
2022/05/20 03:34:47;;;;;;;8.95;5.75;;;;;;;;;;4937626;29;20043;-70
2022/05/20 03:37:24;;;;;;;9.20;6.03;;;;;;;;;;4921507;29;20130;-70
2022/05/20 03:40:17;;;;;;;7.85;5.60;;;;;;;;;;4936983;29;20054;-70
2022/05/20 03:42:49;;;;;;;6.78;4.97;;;;;;;;;;4938033;29;20044;-70
2022/05/20 03:45:18;;;;;;;7.10;4.65;;;;;;;;;;4938338;29;20414;-71
2022/05/20 03:47:46;;;;;;;9.18;5.13;;;;;;;;;;4937196;29;20059;-71
2022/05/20 03:50:14;;;;;;;12.57;6.30;;;;;;;;;;4938315;29;20356;-70
2022/05/20 03:52:41;;;;;;;7.50;5.00;;;;;;;;;;4937488;29;20067;-70
2022/05/20 03:55:21;;;;;;;8.70;5.00;;;;;;;;;;4938212;29;20050;-70
2022/05/20 03:57:53;;;;;;;6.85;4.70;;;;;;;;;;4938077;29;20450;-70
2022/05/20 04:00:22;;;;;;;7.97;5.88;;;;;;;;;;4937814;29;20590;-71
2022/05/20 04:02:50;;;;;;;9.45;4.97;;;;;;;;;;4937637;29;20058;-71
2022/05/20 04:05:24;;;;;;;13.02;6.80;;;;;;;;;;4937984;29;20111;-70
2022/05/20 04:07:54;;;;;;;7.75;4.80;;;;;;;;;;4920725;29;20043;-70
2022/05/20 04:10:23;;;;;;;7.68;4.85;;;;;;;;;;4937890;29;20047;-71
2022/05/20 04:12:51;;;;;;;10.43;5.75;;;;;;;;;;4937409;29;20044;-70
2022/05/20 04:15:21;;;;;;;8.35;4.75;;;;;;;;;;4937658;29;20123;-69
2022/05/20 04:17:50;;;;;;;15.13;4.93;;;;;;;;;;4937532;29;20047;-69
2022/05/20 04:20:17;;;;;;;9.18;5.30;;;;;;;;;;4937017;29;20048;-68
2022/05/20 04:22:53;;;;;;;12.75;5.93;;;;;;;;;;4937603;29;20494;-68
2022/05/20 04:25:23;;;;;;;9.63;5.40;;;;;;;;;;4937629;29;20043;-69
2022/05/20 04:28:15;;;;;;;10.60;5.80;;;;;;;;;;4937232;29;20047;-69
2022/05/20 04:31:08;;;;;;;8.13;5.38;;;;;;;;;;4936536;29;20507;-70
2022/05/20 04:34:01;;;;;;;9.10;5.22;;;;;;;;;;4919776;29;20119;-70
2022/05/20 04:36:29;;;;;;;9.63;5.60;;;;;;;;;;4920526;29;20418;-70
2022/05/20 04:38:57;;;;;;;11.27;4.97;;;;;;;;;;4937264;29;20116;-68
2022/05/20 04:48:43;;;;;;;6.68;4.45;;;;;;;;;;4936744;29;20086;-69
2022/05/20 04:51:56;;;;;;;7.82;4.03;;;;;;;;;;4913900;29;20056;-69
2022/05/20 04:57:30;;;;;;;6.05;4.45;;;;;;;;;;4937126;29;20458;-69
2022/05/20 05:00:05;;;;;;;6.65;4.22;;;;;;;;;;4936609;29;20044;-69
2022/05/20 05:02:40;;;;;;;8.75;4.47;;;;;;;;;;4937088;29;20040;-69
2022/05/20 05:08:14;;;;;;;7.22;4.40;;;;;;;;;;4925551;29;20364;-69
2022/05/20 05:10:42;;;;;;;8.60;4.40;;;;;;;;;;4917733;29;20036;-69
2022/05/20 05:16:39;;;;;;;7.95;4.53;;;;;;;;;;4922766;29;20027;-69
2022/05/20 05:19:07;;;;;;;7.40;4.60;;;;;;;;;;4936299;29;20079;-69
2022/05/20 05:21:36;;;;;;;9.55;4.90;;;;;;;;;;4919537;29;20051;-69
2022/05/20 05:24:05;;;;;;;6.22;3.85;;;;;;;;;;4919308;29;20099;-69
2022/05/20 05:26:34;;;;;;;7.50;4.20;;;;;;;;;;4935216;29;20075;-69
2022/05/20 05:29:27;;;;;;;7.03;4.35;;;;;;;;;;4936616;29;20046;-69
2022/05/20 05:31:55;;;;;;;6.38;4.50;;;;;;;;;;4935734;29;20119;-69
2022/05/20 05:34:23;;;;;;;9.32;4.85;;;;;;;;;;4935792;29;20051;-69
2022/05/20 05:36:59;;;;;;;9.02;4.85;;;;;;;;;;4936646;29;20082;-69
2022/05/20 05:39:27;;;;;;;7.05;4.80;;;;;;;;;;4936298;29;20057;-69
2022/05/20 05:41:54;;;;;;;6.47;3.95;;;;;;;;;;4934900;29;20051;-69
2022/05/20 05:47:33;;;;;;;8.63;4.38;;;;;;;;;;4899693;29;20051;-70
2022/05/20 05:50:33;;;;;;;6.43;4.15;;;;;;;;;;4884661;29;20044;-70
2022/05/20 05:56:36;;;;;;;7.90;4.82;;;;;;;;;;4915870;29;20080;-71
2022/05/20 06:02:39;;;;;;;12.25;8.63;;;;;;;;;;4915967;29;20044;-70
2022/05/20 06:08:23;;;;;;;4.97;4.00;;;;;;;;;;4917021;29;20040;-69
2022/05/20 06:10:55;;;;;;;7.32;4.50;;;;;;;;;;4916230;29;20051;-69
2022/05/20 06:13:36;;;;;;;6.10;4.03;;;;;;;;;;4917086;29;20067;-69
2022/05/20 06:16:09;;;;;;;5.07;3.80;;;;;;;;;;4917178;29;20111;-70
2022/05/20 06:22:23;;;;;;;6.78;4.05;;;;;;;;;;4917104;29;20033;-70
2022/05/20 06:25:20;;;;;;;6.18;4.35;;;;;;;;;;4916171;29;20095;-71
2022/05/20 06:27:47;;;;;;;5.95;3.47;;;;;;;;;;4916055;29;20060;-71
2022/05/20 06:30:24;;;;;;;6.28;3.70;;;;;;;;;;4916644;29;20051;-71
2022/05/20 06:33:17;;;;;;;8.15;3.60;;;;;;;;;;4917078;29;20048;-71
2022/05/20 06:41:54;;;;;;;5.40;4.13;;;;;;;;;;4916511;29;20084;-71
2022/05/20 06:44:22;;;;;;;6.07;3.63;;;;;;;;;;4916918;29;20408;-71
2022/05/20 06:46:53;;;;;;;7.28;3.95;;;;;;;;;;4916458;29;20043;-70
2022/05/20 06:49:26;;;;;;;5.50;3.30;;;;;;;;;;4916901;29;20403;-71
2022/05/20 06:51:56;;;;;;;5.60;3.90;;;;;;;;;;4916765;29;20044;-71
2022/05/20 06:54:26;;;;;;;4.43;3.00;;;;;;;;;;4916415;29;20036;-71
2022/05/20 06:57:01;;;;;;;5.35;2.60;;;;;;;;;;4916718;29;20048;-71
2022/05/20 06:59:29;;;;;;;4.43;3.00;;;;;;;;;;4917074;29;20432;-71
2022/05/20 07:02:00;;;;;;;7.28;2.90;;;;;;;;;;4916430;29;20051;-71
2022/05/20 07:04:50;;;;;;;6.68;2.95;;;;;;;;;;4916337;29;20574;-70
2022/05/20 07:07:23;;;;;;;4.20;2.70;;;;;;;;;;4916911;29;20040;-70
2022/05/20 07:09:55;;;;;;;4.03;2.67;;;;;;;;;;4917510;29;20040;-71
2022/05/20 07:12:31;;;;;;;4.40;2.72;;;;;;;;;;4920035;29;20040;-71
2022/05/20 07:15:00;;;;;;;3.58;2.38;;;;;;;;;;4918673;29;20056;-70
2022/05/20 07:17:41;;;;;;;6.32;2.92;;;;;;;;;;4919873;29;20036;-70
2022/05/20 07:20:14;;;;;;;4.72;2.63;;;;;;;;;;4919660;29;20052;-70
2022/05/20 07:22:41;;;;;;;4.13;2.65;;;;;;;;;;4920260;29;20079;-70
2022/05/20 07:25:14;;;;;;;5.07;2.47;;;;;;;;;;4919697;29;20459;-70
2022/05/20 07:27:42;;;;;;;5.68;2.30;;;;;;;;;;4919381;29;20464;-70
2022/05/20 07:30:14;;;;;;;15.95;3.47;;;;;;;;;;4919235;29;20060;-70
2022/05/20 07:32:46;;;;;;;7.55;2.35;;;;;;;;;;4919571;29;20570;-70
2022/05/20 07:35:16;;;;;;;4.45;2.13;;;;;;;;;;4919667;29;20487;-70
2022/05/20 07:37:46;;;;;;;9.05;7.40;;;;;;;;;;4919285;29;20094;-70
2022/05/20 07:40:19;;;;;;;6.00;2.70;;;;;;;;;;4919870;29;20123;-71
2022/05/20 07:42:47;;;;;;;4.25;2.20;;;;;;;;;;4919366;29;20408;-70
2022/05/20 07:45:17;;;;;;;8.85;2.45;;;;;;;;;;4919102;29;20071;-70
2022/05/20 07:47:49;;;;;;;6.38;2.17;;;;;;;;;;4919343;29;20032;-71
2022/05/20 07:50:18;;;;;;;4.50;2.00;;;;;;;;;;4919360;29;20063;-70
2022/05/20 07:55:41;;;;;;;6.63;3.20;;;;;;;;;;4918924;29;20436;-70
2022/05/20 07:58:16;;;;;;;5.65;2.70;;;;;;;;;;4919300;29;20040;-70
2022/05/20 08:00:43;;;;;;;7.28;2.22;;;;;;;;;;4919002;29;20052;-70
2022/05/20 08:04:52;;;;;;;7.82;2.20;;;;;;;;;;4918948;29;20048;-70
2022/05/20 08:06:01;;;;;;;13.27;10.70;;;;;;;;;;4918915;29;20055;-70
2022/05/20 08:08:34;;;;;;;8.23;7.17;;;;;;;;;;4918975;29;20107;-70
2022/05/20 08:11:02;;;;;;;6.50;2.60;;;;;;;;;;4918977;29;20036;-70
2022/05/20 08:13:34;;;;;;;3.63;2.22;;;;;;;;;;4902165;29;20119;-70
2022/05/20 08:16:02;;;;;;;4.60;2.00;;;;;;;;;;4918735;29;20040;-70
2022/05/20 08:18:30;;;;;;;6.07;2.05;;;;;;;;;;4918604;29;20139;-70
2022/05/20 08:21:02;;;;;;;2.58;1.67;;;;;;;;;;4918219;29;20044;-70
2022/05/20 08:23:30;;;;;;;3.53;1.85;;;;;;;;;;4919070;29;20059;-70
2022/05/20 08:25:58;;;;;;;3.33;1.80;;;;;;;;;;4918284;29;20067;-70
2022/05/20 08:28:25;;;;;;;4.13;2.10;;;;;;;;;;4918824;29;20052;-71
2022/05/20 08:30:53;;;;;;;4.38;1.60;;;;;;;;;;4918104;29;20040;-71
2022/05/20 08:33:35;;;;;;;6.80;1.80;;;;;;;;;;4918174;29;20044;-71
2022/05/20 08:36:04;;;;;;;7.03;3.03;;;;;;;;;;4918497;29;20044;-70
2022/05/20 08:38:37;;;;;;;47.17;25.23;;;;;;;;;;4918060;29;20135;-70
2022/05/20 08:41:05;;;;;;;25.05;14.02;;;;;;;;;;4918667;29;20059;-71
2022/05/20 08:43:35;;;;;;;11.68;6.70;;;;;;;;;;4918300;29;20136;-71
2022/05/20 08:46:08;;;;;;;3.05;1.92;;;;;;;;;;4918288;29;20037;-71
2022/05/20 08:48:42;;;;;;;2.97;1.65;;;;;;;;;;4918212;29;20040;-70
2022/05/20 08:51:11;;;;;;;3.03;2.03;;;;;;;;;;4918075;29;20491;-70
2022/05/20 08:53:44;;;;;;;7.10;3.05;;;;;;;;;;4901333;29;20398;-70
2022/05/20 08:56:13;;;;;;;3.85;2.25;;;;;;;;;;4917916;29;20104;-70
2022/05/20 08:58:53;;;;;;;12.38;3.63;;;;;;;;;;4917586;29;20051;-70
2022/05/20 09:01:43;;;;;;;5.72;2.03;;;;;;;;;;4928896;29;20131;-70
2022/05/20 09:04:22;;;;;;;86.13;76.40;;;;;;;;;;4936776;29;20047;-70
2022/05/20 09:07:01;;;;;;;16.58;13.48;;;;;;;;;;4936838;29;20060;-70
2022/05/20 09:12:42;;;;;;;1.88;1.60;;;;;;;;;;4936458;29;20043;-70
2022/05/20 09:18:20;;;;;;;4.72;2.08;;;;;;;;;;4936454;29;20035;-70
2022/05/20 09:20:53;;;;;;;5.35;1.90;;;;;;;;;;4936827;29;20056;-70
2022/05/20 09:23:23;;;;;;;3.15;1.67;;;;;;;;;;4936527;29;20052;-70
2022/05/20 09:25:56;;;;;;;3.35;2.10;;;;;;;;;;4936332;29;20122;-70
2022/05/20 09:28:43;;;;;;;5.72;2.45;;;;;;;;;;4936797;29;20059;-70
2022/05/20 09:31:44;;;;;;;4.65;1.88;;;;;;;;;;4936370;29;20043;-70
2022/05/20 09:34:15;;;;;;;2.78;1.85;;;;;;;;;;4895345;29;20132;-70
2022/05/20 09:36:56;;;;;;;2.22;1.60;;;;;;;;;;4936376;29;20116;-70
2022/05/20 09:39:31;;;;;;;3.58;2.20;;;;;;;;;;4936502;29;20413;-70
2022/05/20 09:42:10;;;;;;;3.10;1.60;;;;;;;;;;4936484;29;20115;-73
2022/05/20 09:44:41;;;;;;;1.77;1.40;;;;;;;;;;4936271;29;20046;-70
2022/05/20 09:47:24;;;;;;;2.75;1.70;;;;;;;;;;4919422;29;20063;-70
2022/05/20 09:50:23;;;;;;;2.00;1.85;;;;;;;;;;4936202;29;20043;-71
2022/05/20 09:53:09;;;;;;;3.80;1.60;;;;;;;;;;4936131;29;20103;-71
2022/05/20 09:55:38;;;;;;;3.00;1.48;;;;;;;;;;4936563;29;20044;-72
2022/05/20 09:58:21;;;;;;;5.53;1.83;;;;;;;;;;4935955;29;20048;-72
2022/05/20 10:00:53;;;;;;;4.55;1.65;;;;;;;;;;4936273;29;20043;-72
2022/05/20 10:03:25;;;;;;;2.00;1.70;;;;;;;;;;4935850;29;20487;-70
2022/05/20 10:05:53;;;;;;;3.28;1.38;;;;;;;;;;4936309;29;20410;-72
2022/05/20 10:08:37;;;;;;;3.80;1.75;;;;;;;;;;4935686;29;20046;-71
2022/05/20 10:11:20;;;;;;;2.35;1.40;;;;;;;;;;4935864;29;20043;-71
2022/05/20 10:13:56;;;;;;;2.78;1.33;;;;;;;;;;4935913;29;20051;-71
2022/05/20 10:16:34;;;;;;;4.90;1.60;;;;;;;;;;4935867;29;20047;-72
2022/05/20 10:19:16;;;;;;;6.32;2.00;;;;;;;;;;4936198;29;20454;-71
2022/05/20 10:21:50;;;;;;;5.13;2.47;;;;;;;;;;4935809;29;20098;-71
2022/05/20 10:28:05;;;;;;;2.05;1.52;;;;;;;;;;4935285;29;20064;-71
2022/05/20 10:33:28;;;;;;;3.53;1.95;;;;;;;;;;4933495;29;20075;-70
2022/05/20 10:35:56;;;;;;;6.68;3.17;;;;;;;;;;4936289;29;20124;-72
2022/05/20 10:38:40;;;;;;;6.53;4.20;;;;;;;;;;4935368;29;20070;-71
2022/05/20 10:41:14;;;;;;;5.60;2.17;;;;;;;;;;4935589;29;20118;-71
2022/05/20 10:49:45;;;;;;;1.90;1.50;;;;;;;;;;4939704;29;20058;-71
2022/05/20 10:52:32;;;;;;;5.00;1.70;;;;;;;;;;4939385;29;20062;-72
2022/05/20 10:55:22;;;;;;;5.32;2.33;;;;;;;;;;4939398;29;20122;-73
2022/05/20 10:58:02;;;;;;;20.75;13.27;;;;;;;;;;4921948;29;20067;-71
2022/05/20 11:00:40;;;;;;;17.08;11.40;;;;;;;;;;4939565;29;20426;-71
2022/05/20 11:03:10;;;;;;;5.75;2.90;;;;;;;;;;4939087;29;20384;-71
2022/05/20 11:05:52;;;;;;;11.13;7.85;;;;;;;;;;4939117;29;20066;-71
2022/05/20 11:08:36;;;;;;;4.85;3.33;;;;;;;;;;4939099;29;20047;-70
2022/05/20 11:11:07;;;;;;;5.78;4.07;;;;;;;;;;4938752;29;20044;-70
2022/05/20 11:13:46;;;;;;;6.40;4.50;;;;;;;;;;4938753;29;20040;-70
2022/05/20 11:16:41;;;;;;;4.93;2.78;;;;;;;;;;4939157;29;20055;-71
2022/05/20 11:19:10;;;;;;;;;;;;;;;;;;4903927;29;20051;-71
2022/05/20 11:21:39;;;;;;;2.70;1.40;;;;;;;;;;4938899;29;19926;-71
2022/05/20 11:24:27;;;;;;;4.38;2.85;;;;;;;;;;4938672;29;20119;-71
2022/05/20 11:27:03;;;;;;;5.63;1.90;;;;;;;;;;4938349;29;20055;-71
2022/05/20 11:29:56;;;;;;;2.22;1.42;;;;;;;;;;4938401;29;20450;-71
2022/05/20 11:32:27;;;;;;;4.78;3.63;;;;;;;;;;4939104;29;20048;-71
2022/05/20 11:35:13;;;;;;;6.22;2.88;;;;;;;;;;4938839;29;20039;-71
2022/05/20 11:38:09;;;;;;;3.50;1.60;;;;;;;;;;4938224;29;20052;-71
2022/05/20 11:40:53;;;;;;;4.32;2.58;;;;;;;;;;4903224;29;20487;-71
2022/05/20 11:43:45;;;;;;;13.05;4.30;;;;;;;;;;4921494;29;20095;-71
2022/05/20 11:46:38;;;;;;;6.65;4.60;;;;;;;;;;4938711;29;20058;-70
2022/05/20 11:49:17;;;;;;;4.00;1.80;;;;;;;;;;4938502;29;20040;-71
2022/05/20 11:51:51;;;;;;;3.50;2.30;;;;;;;;;;4938207;29;20483;-71
2022/05/20 11:54:31;;;;;;;2.30;1.70;;;;;;;;;;4938122;29;20040;-71
2022/05/20 11:57:03;;;;;;;4.35;1.77;;;;;;;;;;4938267;29;20048;-71
2022/05/20 11:59:57;;;;;;;5.53;2.25;;;;;;;;;;4938106;29;20054;-71
2022/05/20 12:02:50;;;;;;;6.20;2.58;;;;;;;;;;4938265;29;20459;-71
2022/05/20 12:05:24;;;;;;;6.10;2.47;;;;;;;;;;4938097;29;20543;-70
2022/05/20 12:07:57;;;;;;;6.68;2.80;;;;;;;;;;4938000;29;20052;-70
2022/05/20 12:10:31;;;;;;;1.80;1.50;;;;;;;;;;4937801;29;20047;-71
2022/05/20 12:13:19;;;;;;;2.60;1.57;;;;;;;;;;4937951;29;20047;-71
2022/05/20 12:16:05;;;;;;;4.50;1.50;;;;;;;;;;4937897;29;20068;-70
2022/05/20 12:24:40;;;;;;;4.50;2.10;;;;;;;;;;4937117;29;20131;-69
2022/05/20 12:27:33;;;;;;;6.25;3.08;;;;;;;;;;4937174;29;20052;-72
2022/05/20 12:30:28;;;;;;;5.85;1.80;;;;;;;;;;4917856;29;20084;-73
2022/05/20 12:32:56;;;;;;;4.30;1.75;;;;;;;;;;4937558;29;20039;-70
2022/05/20 12:35:26;;;;;;;4.47;1.55;;;;;;;;;;4937437;29;20118;-70
2022/05/20 12:37:57;;;;;;;3.63;1.70;;;;;;;;;;4937206;29;20070;-69
2022/05/20 12:40:49;;;;;;;4.40;2.08;;;;;;;;;;4937501;29;20051;-71
2022/05/20 12:43:38;;;;;;;2.30;1.65;;;;;;;;;;4937319;29;20059;-71
2022/05/20 12:46:15;;;;;;;5.55;2.20;;;;;;;;;;4937240;29;20058;-71
2022/05/20 12:48:44;;;;;;;8.05;2.25;;;;;;;;;;4936907;29;20095;-72
2022/05/20 12:51:18;;;;;;;3.47;1.80;;;;;;;;;;4936982;29;20040;-71
2022/05/20 12:54:11;;;;;;;3.17;1.70;;;;;;;;;;4937035;29;20115;-71
2022/05/20 12:57:03;;;;;;;3.47;2.70;;;;;;;;;;4937228;29;20074;-71
2022/05/20 12:59:58;;;;;;;6.63;3.65;;;;;;;;;;4937501;29;20401;-72
2022/05/20 13:02:35;;;;;;;4.22;2.25;;;;;;;;;;4932205;29;20052;-73
2022/05/20 13:05:18;;;;;;;4.47;1.80;;;;;;;;;;4917701;29;20104;-73
2022/05/20 13:07:48;;;;;;;6.05;2.10;;;;;;;;;;4917840;29;20066;-70
2022/05/20 13:10:29;;;;;;;2.88;1.58;;;;;;;;;;4917544;29;20048;-71
2022/05/20 13:13:25;;;;;;;4.88;1.60;;;;;;;;;;4917673;29;20083;-71
2022/05/20 13:16:18;;;;;;;4.72;1.88;;;;;;;;;;4917515;29;20040;-72
2022/05/20 13:19:01;;;;;;;4.65;1.90;;;;;;;;;;4917315;29;20053;-72
2022/05/20 13:21:37;;;;;;;3.20;1.75;;;;;;;;;;4917105;29;20036;-71
2022/05/20 13:24:18;;;;;;;2.95;1.55;;;;;;;;;;4917196;29;20044;-71
2022/05/20 13:26:45;;;;;;;5.72;1.90;;;;;;;;;;4916353;29;20056;-71
2022/05/20 13:29:19;;;;;;;6.13;1.92;;;;;;;;;;4917007;29;20608;-71
2022/05/20 13:31:49;;;;;;;7.88;1.80;;;;;;;;;;4916954;29;20052;-72
2022/05/20 13:34:16;;;;;;;2.85;1.40;;;;;;;;;;4916810;29;20040;-72
2022/05/20 13:36:49;;;;;;;6.65;2.47;;;;;;;;;;4917352;29;20036;-72
2022/05/20 13:39:21;;;;;;;5.50;3.35;;;;;;;;;;4917203;29;20135;-72
2022/05/20 13:41:50;;;;;;;3.63;2.00;;;;;;;;;;4916905;29;20079;-72
2022/05/20 13:44:33;;;;;;;5.07;1.88;;;;;;;;;;4900903;29;20087;-72
2022/05/20 13:50:14;;;;;;;3.35;1.38;;;;;;;;;;4917468;29;20036;-71
2022/05/20 13:52:43;;;;;;;3.53;2.13;;;;;;;;;;4916251;29;20036;-71
2022/05/20 13:55:14;;;;;;;5.05;1.98;;;;;;;;;;4900030;29;20040;-71
2022/05/20 13:57:44;;;;;;;4.10;1.70;;;;;;;;;;4930411;29;20095;-71
2022/05/20 14:00:13;;;;;;;3.55;1.75;;;;;;;;;;4935803;29;20087;-73
2022/05/20 14:02:42;;;;;;;2.08;1.35;;;;;;;;;;4935756;29;20055;-74
2022/05/20 14:05:18;;;;;;;5.95;1.60;;;;;;;;;;4935714;29;20054;-79
